Time;durP1;ratioP1;P1;durP2;ratioP2;P2;SDS_P1;SDS_P2;PMS_P1;PMS_P2;Temp;Humidity;BMP_temperature;BMP_pressure;BME280_temperature;BME280_humidity;BME280_pressure;Samples;Min_cycle;Max_cycle;Signal;HPM_P1;HPM_P2
2023/08/22 00:01:52;;;;;;;3.88;1.45;;;17.80;99.90;;;;;;9944344;29;20205;-80
2023/08/22 00:07:14;;;;;;;5.13;2.30;;;17.90;99.90;;;;;;9929996;29;20566;-81
2023/08/22 00:12:35;;;;;;;6.43;1.58;;;17.90;99.90;;;;;;9941933;29;20245;-80
2023/08/22 00:17:56;;;;;;;4.65;1.38;;;17.80;1.00;;;;;;9916457;29;20220;-82
2023/08/22 00:23:18;;;;;;;4.03;1.25;;;17.90;1.00;;;;;;9929923;29;20390;-81
2023/08/22 00:28:39;;;;;;;4.65;1.73;;;17.90;1.00;;;;;;9942294;29;20205;-80
2023/08/22 00:34:02;;;;;;;2.78;1.42;;;17.90;1.00;;;;;;9943966;29;20464;-79
2023/08/22 00:39:24;;;;;;;3.40;1.48;;;17.90;1.00;;;;;;9917807;30;20225;-87
2023/08/22 00:44:46;;;;;;;6.75;1.85;;;17.70;1.00;;;;;;9928889;29;20241;-84
2023/08/22 00:50:08;;;;;;;5.03;2.00;;;17.70;1.00;;;;;;9942716;29;20220;-82
2023/08/22 00:55:30;;;;;;;4.50;2.00;;;17.60;99.90;;;;;;9941008;29;20414;-81
2023/08/22 01:00:52;;;;;;;3.17;1.58;;;;;;;;;;9928234;30;20201;-83
2023/08/22 01:06:21;;;;;;;3.20;1.80;;;;;;;;;;9942639;29;20240;-83
2023/08/22 01:11:48;;;;;;;4.70;1.70;;;;;;;;;;9928567;29;20547;-80
2023/08/22 01:17:10;;;;;;;4.63;1.58;;;;;;;;;;9940479;29;20507;-81
2023/08/22 01:22:31;;;;;;;4.60;1.70;;;;;;;;;;9940376;29;20446;-81
2023/08/22 01:27:53;;;;;;;3.13;1.23;;;;;;;;;;9940598;29;20224;-85
2023/08/22 01:33:37;;;;;;;5.53;1.83;;;;;;;;;;9927278;29;20209;-84
2023/08/22 01:39:04;;;;;;;3.65;1.52;;;;;;;;;;9942320;29;20209;-83
2023/08/22 01:44:28;;;;;;;5.00;2.13;;;;;;;;;;9927181;29;20239;-82
2023/08/22 01:49:49;;;;;;;5.78;1.95;;;;;;;;;;9939629;29;20209;-85
2023/08/22 01:55:12;;;;;;;5.88;1.73;;;;;;;;;;9939898;29;20217;-82
2023/08/22 02:00:34;;;;;;;4.18;1.60;;;;;;;;;;9946686;29;20213;-82
2023/08/22 02:05:56;;;;;;;2.38;1.40;;;;;;;;;;9933472;29;20303;-85
2023/08/22 02:11:18;;;;;;;2.80;1.42;;;;;;;;;;9945875;29;20233;-80
2023/08/22 02:16:42;;;;;;;4.15;1.77;;;;;;;;;;9946084;29;20220;-82
2023/08/22 02:22:03;;;;;;;2.88;1.73;;;;;;;;;;9934349;29;20201;-89
2023/08/22 02:27:25;;;;;;;3.83;1.70;;;17.00;1.00;;;;;;9948352;29;20248;-88
2023/08/22 02:32:47;;;;;;;2.20;1.30;;;17.10;99.90;;;;;;9932877;29;20205;-86
2023/08/22 02:38:09;;;;;;;3.75;1.70;;;17.00;99.90;;;;;;9947387;29;20268;-81
2023/08/22 02:43:30;;;;;;;3.70;2.03;;;17.00;1.00;;;;;;9945084;29;20213;-80
2023/08/22 02:48:52;;;;;;;3.33;1.70;;;17.10;99.90;;;;;;9946477;29;20287;-83
2023/08/22 02:54:13;;;;;;;3.03;1.70;;;17.20;95.40;;;;;;9944741;29;20235;-82
2023/08/22 02:59:34;;;;;;;7.05;2.72;;;17.20;1.00;;;;;;9931676;30;20375;-82
2023/08/22 03:04:56;;;;;;;3.83;1.83;;;17.00;29.50;;;;;;9919018;29;20269;-85
2023/08/22 03:10:19;;;;;;;5.30;2.20;;;17.00;1.00;;;;;;9918091;30;20272;-83
2023/08/22 03:15:40;;;;;;;5.18;2.33;;;17.00;1.00;;;;;;9931469;30;20474;-86
2023/08/22 03:21:03;;;;;;;3.40;2.03;;;16.90;1.00;;;;;;9946015;29;20426;-87
2023/08/22 03:26:26;;;;;;;4.13;1.67;;;16.90;25.30;;;;;;9932013;29;20248;-85
2023/08/22 03:31:47;;;;;;;3.55;1.88;;;16.90;1.00;;;;;;9943486;29;20228;-84
2023/08/22 03:37:09;;;;;;;3.97;1.90;;;16.80;99.90;;;;;;9930803;30;20208;-89
2023/08/22 03:42:31;;;;;;;4.05;1.88;;;16.80;1.00;;;;;;9930103;29;20444;-81
2023/08/22 03:48:03;;;;;;;6.93;2.17;;;17.00;99.90;;;;;;9942718;29;20228;-84
2023/08/22 03:53:26;;;;;;;4.63;2.17;;;17.10;1.00;;;;;;9929350;29;20283;-88
2023/08/22 03:58:47;;;;;;;4.28;1.83;;;17.10;1.00;;;;;;9929505;30;20496;-83
2023/08/22 04:04:14;;;;;;;4.32;2.22;;;17.10;22.00;;;;;;9928811;30;20215;-80
2023/08/22 04:09:35;;;;;;;4.43;2.58;;;17.30;1.00;;;;;;9928791;30;20252;-79
2023/08/22 04:14:57;;;;;;;8.38;3.40;;;17.30;99.90;;;;;;9929399;30;20205;-80
2023/08/22 04:20:19;;;;;;;10.20;4.10;;;17.30;99.90;;;;;;9927892;29;20201;-80
2023/08/22 04:25:40;;;;;;;9.48;4.05;;;17.40;1.00;;;;;;9891428;30;20264;-80
2023/08/22 04:31:02;;;;;;;8.40;4.07;;;17.40;99.90;;;;;;9890810;29;20244;-79
2023/08/22 04:36:24;;;;;;;6.40;3.80;;;17.30;1.00;;;;;;9893440;29;20217;-87
2023/08/22 04:41:45;;;;;;;7.35;3.30;;;17.30;99.90;;;;;;9892026;29;20221;-87
2023/08/22 04:47:36;;;;;;;3.92;2.90;;;17.30;99.90;;;;;;9928944;29;20273;-80
2023/08/22 04:52:58;;;;;;;2.10;1.90;;;17.20;1.00;;;;;;9940366;29;20279;-80
2023/08/22 04:58:19;;;;;;;2.33;2.10;;;17.30;1.00;;;;;;9927606;30;20208;-81
2023/08/22 05:03:40;;;;;;;4.30;2.83;;;17.20;99.90;;;;;;9942250;29;20265;-80
2023/08/22 05:09:02;;;;;;;3.10;2.80;;;17.20;99.90;;;;;;9941996;29;20327;-85
2023/08/22 05:14:27;;;;;;;2.30;1.95;;;17.30;99.90;;;;;;9939502;29;20201;-80
2023/08/22 05:19:49;;;;;;;2.22;2.03;;;17.20;25.80;;;;;;9914633;29;20248;-83
2023/08/22 05:25:10;;;;;;;2.70;1.77;;;17.30;99.90;;;;;;9927065;30;20227;-83
2023/08/22 05:30:32;;;;;;;2.53;1.77;;;17.40;1.00;;;;;;9928064;29;20205;-83
2023/08/22 05:35:54;;;;;;;2.83;1.70;;;17.50;1.00;;;;;;9934216;29;20213;-85
2023/08/22 05:41:16;;;;;;;3.45;2.22;;;17.60;99.90;;;;;;9949209;29;20445;-84
2023/08/22 05:46:38;;;;;;;6.75;2.47;;;17.80;99.90;;;;;;9946609;29;20229;-84
2023/08/22 05:52:04;;;;;;;4.15;2.60;;;18.00;24.50;;;;;;9946133;29;20276;-80
2023/08/22 05:57:28;;;;;;;6.15;3.53;;;18.20;99.90;;;;;;9933374;29;20221;-85
2023/08/22 06:02:49;;;;;;;4.40;2.70;;;18.30;99.90;;;;;;9946099;29;20229;-87
2023/08/22 06:08:11;;;;;;;9.73;3.88;;;18.40;1.00;;;;;;9945720;29;20241;-83
2023/08/22 06:13:32;;;;;;;3.45;2.45;;;18.50;1.00;;;;;;9945990;29;20209;-81
2023/08/22 06:18:54;;;;;;;3.60;2.30;;;18.50;1.00;;;;;;9932656;29;20286;-81
2023/08/22 06:24:15;;;;;;;2.53;2.30;;;18.60;1.00;;;;;;9945213;29;20205;-82
2023/08/22 06:29:37;;;;;;;6.07;2.95;;;18.90;99.90;;;;;;9932527;30;20201;-82
2023/08/22 06:34:59;;;;;;;2.78;2.20;;;19.10;1.00;;;;;;9947397;29;20220;-80
2023/08/22 06:40:22;;;;;;;2.28;1.75;;;19.30;99.90;;;;;;9931919;29;20217;-82
2023/08/22 06:45:43;;;;;;;3.88;1.75;;;20.10;99.90;;;;;;9945821;29;20241;-81
2023/08/22 06:51:05;;;;;;;2.33;1.70;;;20.30;1.00;;;;;;9936645;29;20403;-83
2023/08/22 06:56:26;;;;;;;4.03;2.05;;;20.40;1.00;;;;;;9944409;29;20212;-81
2023/08/22 07:01:47;;;;;;;3.92;2.50;;;20.80;1.00;;;;;;9932692;29;20193;-88
2023/08/22 07:07:09;;;;;;;2.33;1.75;;;20.90;1.00;;;;;;9943668;29;20264;-86
2023/08/22 07:12:30;;;;;;;2.42;2.00;;;20.90;1.00;;;;;;9931224;30;20278;-86
2023/08/22 07:17:51;;;;;;;4.15;1.70;;;21.00;1.00;;;;;;9943671;29;20213;-84
2023/08/22 07:23:13;;;;;;;6.57;2.03;;;21.20;99.90;;;;;;9931506;29;20221;-86
2023/08/22 07:28:34;;;;;;;4.30;1.70;;;21.20;99.90;;;;;;9954969;29;20476;-81
2023/08/22 07:33:55;;;;;;;9.18;2.80;;;20.90;1.00;;;;;;9951944;29;20197;-83
2023/08/22 07:39:18;;;;;;;6.05;2.25;;;20.80;1.00;;;;;;9949604;29;20242;-84
2023/08/22 07:44:39;;;;;;;2.17;1.60;;;20.80;1.00;;;;;;9930582;29;20556;-83
2023/08/22 07:50:00;;;;;;;4.05;1.80;;;20.70;1.00;;;;;;9930576;29;20213;-84
2023/08/22 07:55:23;;;;;;;3.97;1.50;;;20.50;1.00;;;;;;9930541;29;20212;-91
2023/08/22 08:00:48;;;;;;;5.18;1.73;;;20.60;1.00;;;;;;9929945;29;20435;-85
2023/08/22 08:06:09;;;;;;;3.55;1.42;;;21.00;1.00;;;;;;9944412;29;20374;-90
2023/08/22 08:11:31;;;;;;;5.25;1.25;;;21.40;1.00;;;;;;9929502;29;20237;-91
2023/08/22 08:16:52;;;;;;;4.13;1.30;;;22.50;99.90;;;;;;9929571;30;20218;-88
2023/08/22 08:22:14;;;;;;;2.30;1.38;;;22.40;10.40;;;;;;9928927;30;20260;-87
2023/08/22 08:27:35;;;;;;;2.35;1.30;;;22.20;16.50;;;;;;9929756;29;20229;-83
2023/08/22 08:32:56;;;;;;;3.30;1.00;;;22.10;1.20;;;;;;9943434;29;20207;-82
2023/08/22 08:38:18;;;;;;;4.88;1.30;;;22.10;6.50;;;;;;9943415;29;20436;-90
2023/08/22 08:43:40;;;;;;;6.55;1.65;;;22.10;1.00;;;;;;9915542;30;20219;-81
2023/08/22 08:49:04;;;;;;;4.72;1.40;;;22.10;4.30;;;;;;9942792;29;20239;-80
2023/08/22 08:54:28;;;;;;;6.70;1.17;;;22.20;1.00;;;;;;9946657;29;20201;-83
2023/08/22 08:59:50;;;;;;;4.85;1.13;;;22.40;1.00;;;;;;9935658;30;20201;-84
2023/08/22 09:05:11;;;;;;;5.00;1.52;;;22.70;1.00;;;;;;9943994;29;20248;-87
2023/08/22 09:10:34;;;;;;;5.82;1.65;;;22.70;1.00;;;;;;9941630;29;20247;-83
2023/08/22 09:16:00;;;;;;;12.05;1.58;;;22.70;1.00;;;;;;9955467;29;20212;-83
2023/08/22 09:21:21;;;;;;;5.15;1.58;;;22.50;1.00;;;;;;9940387;30;20205;-83
2023/08/22 09:26:49;;;;;;;1.55;1.13;;;22.20;1.00;;;;;;9955196;29;20554;-90
2023/08/22 09:32:10;;;;;;;1.73;1.17;;;22.10;1.00;;;;;;9952629;29;20250;-80
2023/08/22 09:37:36;;;;;;;4.30;1.38;;;22.40;1.00;;;;;;9952838;29;20207;-89
2023/08/22 09:42:59;;;;;;;5.53;1.85;;;22.60;1.00;;;;;;9939807;30;20213;-82
2023/08/22 09:48:24;;;;;;;6.18;1.27;;;22.70;1.00;;;;;;9954203;29;20432;-80
2023/08/22 09:54:05;;;;;;;2.65;1.60;;;22.70;1.00;;;;;;9939341;29;20220;-81
2023/08/22 09:59:28;;;;;;;4.72;1.10;;;22.70;1.00;;;;;;9952417;29;20203;-87
2023/08/22 10:04:50;;;;;;;3.70;1.42;;;23.80;1.00;;;;;;9954275;29;20515;-87
2023/08/22 10:10:38;;;;;;;6.53;1.30;;;25.20;1.00;;;;;;9940671;30;20245;-85
2023/08/22 10:16:01;;;;;;;4.72;1.40;;;25.70;1.00;;;;;;9940299;29;20281;-86
2023/08/22 10:21:23;;;;;;;2.78;1.17;;;25.40;1.00;;;;;;9948171;29;20201;-85
2023/08/22 10:27:02;;;;;;;6.82;1.55;;;24.90;1.00;;;;;;9933248;30;20237;-85
2023/08/22 10:32:27;;;;;;;1.90;1.05;;;24.60;1.00;;;;;;9933334;29;20217;-84
2023/08/22 10:37:51;;;;;;;4.30;1.15;;;24.60;1.00;;;;;;9934157;29;20205;-90
2023/08/22 10:43:38;;;;;;;3.08;1.23;;;24.60;1.00;;;;;;9942533;29;20213;-88
2023/08/22 10:49:30;;;;;;;1.77;1.13;;;25.10;1.00;;;;;;9942406;29;20241;-88
2023/08/22 10:55:20;;;;;;;3.00;1.00;;;;;;;;;;9932857;30;20421;-88
2023/08/22 11:01:08;;;;;;;5.93;1.30;;;;;;;;;;9933132;30;20272;-85
2023/08/22 11:06:55;;;;;;;1.25;0.65;;;28.50;99.90;;;;;;9942134;29;20429;-86
2023/08/22 11:12:43;;;;;;;3.33;1.00;;;28.70;99.90;;;;;;9932296;29;20264;-85
2023/08/22 11:18:29;;;;;;;2.70;1.17;;;28.40;99.90;;;;;;9932784;30;20213;-85
2023/08/22 11:24:15;;;;;;;3.58;1.15;;;28.80;99.90;;;;;;9932435;30;20201;-91
2023/08/22 11:30:02;;;;;;;2.75;1.20;;;29.20;99.90;;;;;;9940378;29;20209;-78
2023/08/22 11:35:48;;;;;;;2.25;0.95;;;29.10;99.90;;;;;;9932077;30;20213;-85
2023/08/22 11:41:36;;;;;;;5.88;1.30;;;29.80;99.90;;;;;;9931220;30;20206;-82
2023/08/22 11:47:22;;;;;;;2.08;0.90;;;;;;;;;;9921038;30;20236;-81
2023/08/22 11:53:11;;;;;;;1.58;0.90;;;;;;;;;;9923430;30;20280;-83
2023/08/22 11:58:59;;;;;;;0.95;0.70;;;;;;;;;;9902968;30;20218;-88
2023/08/22 12:04:47;;;;;;;2.95;1.27;;;;;;;;;;9893566;30;20233;-87
2023/08/22 12:10:12;;;;;;;2.38;0.90;;;;;;;;;;9892627;30;20241;-83
2023/08/22 12:15:33;;;;;;;5.45;0.95;;;29.40;1.00;;;;;;9905884;30;20273;-85
2023/08/22 12:20:55;;;;;;;2.15;0.75;;;29.30;1.00;;;;;;9910939;29;20242;-86
2023/08/22 12:26:16;;;;;;;8.20;1.20;;;29.30;1.00;;;;;;9944104;29;20236;-85
2023/08/22 12:31:37;;;;;;;1.85;1.08;;;29.90;1.00;;;;;;9930422;29;20225;-82
2023/08/22 12:36:59;;;;;;;0.98;0.88;;;30.30;1.00;;;;;;9929871;30;20205;-86
2023/08/22 12:42:20;;;;;;;2.70;0.93;;;30.40;88.10;;;;;;9941511;29;20239;-87
2023/08/22 12:47:42;;;;;;;1.45;1.00;;;30.20;99.90;;;;;;9942198;29;20402;-88
2023/08/22 12:53:09;;;;;;;5.75;1.10;;;29.80;99.90;;;;;;9929009;30;20211;-91
2023/08/22 12:58:30;;;;;;;0.77;0.70;;;29.30;57.80;;;;;;9904353;30;20447;-87
2023/08/22 13:03:52;;;;;;;2.40;1.10;;;29.30;62.10;;;;;;9906120;30;20235;-86
2023/08/22 13:09:14;;;;;;;2.70;0.93;;;29.40;81.10;;;;;;9891035;30;20253;-86
2023/08/22 13:14:35;;;;;;;1.98;0.95;;;29.40;84.50;;;;;;9905957;29;20567;-82
2023/08/22 13:19:57;;;;;;;1.67;0.88;;;29.30;94.10;;;;;;9891018;30;20505;-91
2023/08/22 13:25:18;;;;;;;5.85;1.55;;;29.20;81.20;;;;;;9940239;29;20212;-86
2023/08/22 13:30:40;;;;;;;2.45;1.25;;;29.20;99.90;;;;;;9942732;29;20213;-83
2023/08/22 13:36:01;;;;;;;2.75;1.20;;;29.20;99.90;;;;;;9942746;29;20209;-86
2023/08/22 13:41:22;;;;;;;1.95;1.13;;;28.80;99.90;;;;;;9940201;29;20263;-84
2023/08/22 13:46:44;;;;;;;1.13;0.90;;;28.40;66.10;;;;;;9907927;29;20240;-80
2023/08/22 13:52:05;;;;;;;1.40;0.82;;;28.20;52.50;;;;;;9926584;29;20205;-85
2023/08/22 13:57:27;;;;;;;1.38;0.95;;;28.00;9.10;;;;;;9936533;30;20194;-80
2023/08/22 14:02:49;;;;;;;7.88;1.30;;;28.00;54.40;;;;;;9940900;29;20213;-88
2023/08/22 14:08:10;;;;;;;2.08;0.95;;;27.80;1.00;;;;;;9922354;30;20286;-87
2023/08/22 14:13:33;;;;;;;2.95;1.13;;;27.60;90.90;;;;;;9923889;29;20258;-85
2023/08/22 14:18:54;;;;;;;6.28;1.52;;;27.50;1.00;;;;;;9946713;29;20233;-90
2023/08/22 14:24:16;;;;;;;2.30;0.95;;;27.50;1.00;;;;;;9945998;29;20247;-88
2023/08/22 14:29:37;;;;;;;5.03;1.30;;;27.20;1.00;;;;;;9933775;29;20278;-88
2023/08/22 14:34:58;;;;;;;3.35;1.58;;;27.20;1.00;;;;;;9934387;29;20201;-83
2023/08/22 14:40:19;;;;;;;3.15;1.00;;;27.10;1.00;;;;;;9948198;29;20523;-83
2023/08/22 14:45:41;;;;;;;2.38;1.17;;;27.10;1.00;;;;;;9947210;29;20220;-83
2023/08/22 14:51:02;;;;;;;3.58;1.00;;;26.80;99.90;;;;;;9932826;29;20213;-84
2023/08/22 14:56:25;;;;;;;0.93;0.70;;;;;;;;;;9934661;29;20492;-87
2023/08/22 15:01:47;;;;;;;3.00;1.40;;;26.50;99.90;;;;;;9932672;30;20277;-87
2023/08/22 15:07:08;;;;;;;2.45;1.30;;;26.20;99.90;;;;;;9946247;29;20240;-86
2023/08/22 15:12:29;;;;;;;1.88;1.00;;;25.90;99.90;;;;;;9932913;29;20233;-89
2023/08/22 15:17:50;;;;;;;3.05;1.10;;;25.90;99.90;;;;;;9933008;30;20557;-87
2023/08/22 15:23:11;;;;;;;8.13;1.73;;;26.00;99.90;;;;;;9932438;29;20475;-85
2023/08/22 15:28:33;;;;;;;3.35;1.30;;;25.90;99.90;;;;;;9918718;30;20248;-86
2023/08/22 15:33:54;;;;;;;1.65;0.98;;;25.60;99.90;;;;;;9943692;29;20495;-88
2023/08/22 15:39:16;;;;;;;2.60;1.00;;;25.90;1.00;;;;;;9931297;30;20492;-90
2023/08/22 15:44:37;;;;;;;1.77;0.98;;;25.60;1.00;;;;;;9931758;30;20228;-89
2023/08/22 15:49:58;;;;;;;1.58;0.80;;;25.50;99.90;;;;;;9943155;29;20237;-84
2023/08/22 15:55:20;;;;;;;2.95;1.27;;;25.50;99.90;;;;;;9943347;29;20197;-91
2023/08/22 16:00:43;;;;;;;2.30;1.40;;;25.20;99.90;;;;;;9945795;29;20221;-91
2023/08/22 16:06:04;;;;;;;1.23;0.80;;;25.10;99.90;;;;;;9942848;29;20380;-86
2023/08/22 16:11:26;;;;;;;2.88;1.20;;;25.00;99.90;;;;;;9944898;29;20245;-89
2023/08/22 16:16:47;;;;;;;4.20;1.48;;;25.00;99.90;;;;;;9931798;29;20561;-79
2023/08/22 16:22:09;;;;;;;2.60;1.10;;;25.00;99.90;;;;;;9930130;29;20246;-79
2023/08/22 16:27:30;;;;;;;4.55;1.55;;;24.90;99.90;;;;;;9944239;29;20245;-80
2023/08/22 16:32:56;;;;;;;2.08;1.35;;;24.90;99.90;;;;;;9916605;30;20550;-81
2023/08/22 16:38:17;;;;;;;1.25;1.02;;;24.60;99.90;;;;;;9928695;29;20297;-79
2023/08/22 16:43:39;;;;;;;1.73;1.10;;;24.50;99.90;;;;;;9928272;29;20244;-79
2023/08/22 16:49:00;;;;;;;2.22;1.33;;;24.40;99.90;;;;;;9940776;29;20249;-79
2023/08/22 16:54:21;;;;;;;2.90;1.52;;;24.30;99.90;;;;;;9943345;29;20518;-80
2023/08/22 16:59:43;;;;;;;1.88;1.30;;;24.10;99.90;;;;;;9915647;30;20718;-79
2023/08/22 17:05:05;;;;;;;1.73;1.15;;;24.00;99.90;;;;;;9940645;29;20212;-79
2023/08/22 17:10:29;;;;;;;1.25;0.90;;;23.90;99.90;;;;;;9940405;29;20490;-80
2023/08/22 17:15:58;;;;;;;1.27;1.10;;;23.80;99.90;;;;;;9915111;30;20280;-80
2023/08/22 17:21:19;;;;;;;3.22;1.60;;;23.70;1.00;;;;;;9915114;29;20211;-80
2023/08/22 17:26:41;;;;;;;3.17;1.60;;;23.60;1.00;;;;;;9927908;29;20233;-80
2023/08/22 17:32:02;;;;;;;5.22;1.92;;;23.40;99.90;;;;;;9936062;29;20231;-81
2023/08/22 17:37:23;;;;;;;2.40;1.27;;;23.30;99.90;;;;;;9934891;30;20247;-81
2023/08/22 17:42:45;;;;;;;4.57;1.83;;;;;;;;;;9935592;30;20213;-79
2023/08/22 17:48:08;;;;;;;2.05;1.35;;;23.20;1.00;;;;;;9949121;29;20290;-80
2023/08/22 17:53:29;;;;;;;2.13;1.15;;;;;;;;;;9934084;30;20218;-79
2023/08/22 17:58:51;;;;;;;4.05;1.70;;;22.80;99.90;;;;;;9934247;30;20201;-79
2023/08/22 18:04:12;;;;;;;3.13;1.80;;;22.70;99.90;;;;;;9949439;29;20240;-80
2023/08/22 18:09:33;;;;;;;1.98;1.65;;;22.50;99.90;;;;;;9934722;29;20245;-84
2023/08/22 18:14:56;;;;;;;4.03;2.42;;;22.40;99.90;;;;;;9948752;29;20228;-85
2023/08/22 18:20:19;;;;;;;6.47;3.38;;;;;;;;;;9946255;29;20213;-86
2023/08/22 18:25:40;;;;;;;5.65;3.78;;;21.90;99.90;;;;;;9909510;30;20229;-82
2023/08/22 18:31:08;;;;;;;6.57;4.68;;;21.70;99.90;;;;;;9911016;29;20227;-85
2023/08/22 18:36:30;;;;;;;7.97;6.00;;;21.60;99.90;;;;;;9911186;29;20218;-84
2023/08/22 18:41:52;;;;;;;12.35;7.20;;;21.60;99.90;;;;;;9910394;29;20218;-87
2023/08/22 18:47:13;;;;;;;16.48;8.45;;;21.50;99.90;;;;;;9945825;29;20266;-81
2023/08/22 18:52:34;;;;;;;17.15;10.00;;;21.20;99.90;;;;;;9935962;29;20292;-81
2023/08/22 18:57:56;;;;;;;16.08;10.13;;;21.10;99.90;;;;;;9920014;30;20201;-79
2023/08/22 19:03:20;;;;;;;13.20;8.35;;;21.00;99.90;;;;;;9932960;29;20201;-80
2023/08/22 19:08:41;;;;;;;16.75;7.75;;;20.80;99.90;;;;;;9946859;29;20575;-80
2023/08/22 19:14:03;;;;;;;15.25;7.63;;;20.70;99.90;;;;;;9949574;29;20205;-83
2023/08/22 19:19:24;;;;;;;12.80;7.18;;;20.40;99.90;;;;;;9946207;29;20280;-84
2023/08/22 19:24:45;;;;;;;16.33;7.75;;;20.30;99.90;;;;;;9926187;30;20212;-82
2023/08/22 19:30:07;;;;;;;16.38;8.05;;;20.10;99.90;;;;;;9944012;29;20236;-79
2023/08/22 19:35:29;;;;;;;15.13;7.55;;;20.00;99.90;;;;;;9944112;29;20463;-79
2023/08/22 19:40:54;;;;;;;17.65;8.40;;;19.90;1.00;;;;;;9945426;29;20250;-79
2023/08/22 19:46:15;;;;;;;13.60;7.85;;;19.90;1.00;;;;;;9921048;30;20243;-79
2023/08/22 19:51:37;;;;;;;15.15;8.68;;;19.80;1.00;;;;;;9929814;29;20236;-81
2023/08/22 19:56:58;;;;;;;16.02;9.70;;;19.80;1.00;;;;;;9931130;29;20262;-82
2023/08/22 20:02:20;;;;;;;30.65;14.82;;;;;;;;;;9945223;29;20302;-79
2023/08/22 20:07:42;;;;;;;22.65;12.60;;;19.50;1.00;;;;;;9942302;29;20243;-80
2023/08/22 20:13:03;;;;;;;17.52;10.52;;;;;;;;;;9942517;29;20197;-83
2023/08/22 20:18:24;;;;;;;22.60;11.23;;;19.20;1.00;;;;;;9930722;29;20258;-84
2023/08/22 20:23:47;;;;;;;19.58;10.50;;;;;;;;;;9941992;29;20280;-85
2023/08/22 20:29:10;;;;;;;19.67;9.85;;;;;;;;;;9941756;29;20244;-83
2023/08/22 20:34:33;;;;;;;20.20;10.98;;;;;;;;;;9930207;29;20488;-83
2023/08/22 20:39:55;;;;;;;18.67;11.65;;;;;;;;;;9942013;29;20511;-86
2023/08/22 20:45:17;;;;;;;18.65;10.88;;;;;;;;;;9943365;29;20216;-82
2023/08/22 20:50:39;;;;;;;22.50;11.07;;;;;;;;;;9954524;29;20233;-87
2023/08/22 20:56:01;;;;;;;20.23;10.27;;;;;;;;;;9941353;29;20200;-85
2023/08/22 21:01:25;;;;;;;19.70;9.10;;;;;;;;;;9940916;29;20217;-80
2023/08/22 21:06:46;;;;;;;15.23;9.18;;;;;;;;;;9942949;29;20248;-84
2023/08/22 21:12:08;;;;;;;19.13;9.90;;;;;;;;;;9943150;29;20252;-82
2023/08/22 21:17:29;;;;;;;15.75;9.95;;;;;;;;;;9928203;30;20204;-84
2023/08/22 21:22:51;;;;;;;23.50;11.88;;;;;;;;;;9942912;29;20212;-82
2023/08/22 21:28:12;;;;;;;18.27;8.52;;;;;;;;;;9941274;29;20233;-82
2023/08/22 21:33:33;;;;;;;16.92;9.18;;;18.40;1.00;;;;;;9940957;29;20197;-82
2023/08/22 21:38:55;;;;;;;18.05;8.63;;;;;;;;;;9928978;29;20205;-81
2023/08/22 21:44:17;;;;;;;15.55;9.70;;;18.20;99.90;;;;;;9942608;29;20288;-77
2023/08/22 21:49:38;;;;;;;18.45;9.88;;;;;;;;;;9928058;29;20304;-78
2023/08/22 21:55:00;;;;;;;20.17;9.40;;;;;;;;;;9928015;29;20209;-78
2023/08/22 22:00:22;;;;;;;17.75;8.48;;;;;;;;;;9928374;30;20491;-78
2023/08/22 22:12:00;;;;;;;18.50;8.95;;;;;;;;;;9927395;29;20249;-79
2023/08/22 22:17:24;;;;;;;17.80;8.82;;;;;;;;;;9933508;29;20213;-78
2023/08/22 22:22:47;;;;;;;15.40;8.52;;;;;;;;;;9933192;30;20201;-79
2023/08/22 22:28:08;;;;;;;20.35;9.45;;;17.90;1.00;;;;;;9933109;29;20249;-78
2023/08/22 22:33:30;;;;;;;19.70;9.43;;;;;;;;;;9947866;29;20252;-78
2023/08/22 22:38:52;;;;;;;24.80;9.48;;;;;;;;;;9948113;29;20288;-83
2023/08/22 22:44:13;;;;;;;16.90;8.65;;;17.60;1.00;;;;;;9933033;29;20205;-80
2023/08/22 22:49:34;;;;;;;13.65;7.45;;;17.50;1.00;;;;;;9945505;29;20233;-87
2023/08/22 22:54:56;;;;;;;16.40;7.55;;;17.50;1.00;;;;;;9932731;30;20202;-89
2023/08/22 23:00:17;;;;;;;13.68;6.80;;;17.40;1.00;;;;;;9945798;29;20201;-81
2023/08/22 23:05:39;;;;;;;19.02;7.22;;;17.30;1.00;;;;;;9933382;29;20209;-86
2023/08/22 23:11:01;;;;;;;15.52;6.53;;;17.20;1.00;;;;;;9933170;30;20256;-84
2023/08/22 23:16:22;;;;;;;16.33;6.90;;;17.20;1.00;;;;;;9945304;29;20212;-87
2023/08/22 23:21:43;;;;;;;13.52;6.30;;;17.20;1.00;;;;;;9919358;30;20208;-86
2023/08/22 23:27:05;;;;;;;15.60;7.30;;;17.10;1.00;;;;;;9931044;29;20550;-83
2023/08/22 23:32:28;;;;;;;13.30;6.10;;;17.20;52.40;;;;;;9946270;29;20217;-83
2023/08/22 23:37:49;;;;;;;22.00;6.63;;;17.20;99.90;;;;;;9944373;29;20250;-79
2023/08/22 23:43:10;;;;;;;14.57;6.43;;;17.20;87.30;;;;;;9933060;29;20247;-78
2023/08/22 23:48:32;;;;;;;10.48;5.38;;;;;;;;;;9942716;29;20236;-79
2023/08/22 23:53:54;;;;;;;13.10;5.95;;;16.80;1.00;;;;;;9943027;29;20242;-82
2023/08/22 23:59:15;;;;;;;11.10;4.88;;;16.80;1.00;;;;;;9930485;30;20201;-78
